Bremerton, Washington
Current Conditions -  °F | °C
As of 6:55 AM on Wednesday 22 Oct 2014 (Local Time) from KPWT Reporting Station
Overcast Overcast  
Wind Chill: 54°   Ceiling: 600
Heat Index: 54°   Visibility: 10mi
Dew Point: 54°   Wind: 20mph
Humidity: 100%   Direction: 180°S
Pressure: 29.7"   Gusts: 26mph
Location:  47.57°N, 122.62°W
Report Text: KPWT 221355Z AUTO 18017G23KT 10SM OVC006 12/12 A2970 RMK AO1 P0004
Loading
Personal Weather Stations






























Interactive Weather Map New forecast layout! Learn more

10-Day Weather Forecast

Advertisements
Track Severe Weather on mobile